sensor_id;sensor_type;location;lat;lon;timestamp;P1;durP1;ratioP1;P2;durP2;ratioP2
3939;SDS011;1984;48.312;9.244;2024-01-15T00:01:26;13.90;;;7.03;;
3939;SDS011;1984;48.312;9.244;2024-01-15T00:03:51;13.97;;;6.27;;
3939;SDS011;1984;48.312;9.244;2024-01-15T00:06:17;14.50;;;5.27;;
3939;SDS011;1984;48.312;9.244;2024-01-15T00:08:42;13.90;;;6.00;;
3939;SDS011;1984;48.312;9.244;2024-01-15T00:11:08;10.63;;;5.00;;
3939;SDS011;1984;48.312;9.244;2024-01-15T00:13:33;19.67;;;6.10;;
3939;SDS011;1984;48.312;9.244;2024-01-15T00:15:59;14.00;;;5.93;;
3939;SDS011;1984;48.312;9.244;2024-01-15T00:18:24;16.40;;;6.90;;
3939;SDS011;1984;48.312;9.244;2024-01-15T00:20:50;16.77;;;6.97;;
3939;SDS011;1984;48.312;9.244;2024-01-15T00:23:15;11.27;;;5.43;;
3939;SDS011;1984;48.312;9.244;2024-01-15T00:25:41;14.67;;;5.33;;
3939;SDS011;1984;48.312;9.244;2024-01-15T00:28:06;14.57;;;6.07;;
3939;SDS011;1984;48.312;9.244;2024-01-15T00:30:32;9.60;;;5.43;;
3939;SDS011;1984;48.312;9.244;2024-01-15T00:32:57;9.73;;;5.30;;
3939;SDS011;1984;48.312;9.244;2024-01-15T00:35:23;15.17;;;5.70;;
3939;SDS011;1984;48.312;9.244;2024-01-15T00:37:48;8.30;;;4.23;;
3939;SDS011;1984;48.312;9.244;2024-01-15T00:40:14;8.87;;;4.33;;
3939;SDS011;1984;48.312;9.244;2024-01-15T00:42:39;19.70;;;5.13;;
3939;SDS011;1984;48.312;9.244;2024-01-15T00:45:05;13.60;;;4.20;;
3939;SDS011;1984;48.312;9.244;2024-01-15T00:47:32;12.63;;;7.00;;
3939;SDS011;1984;48.312;9.244;2024-01-15T00:49:58;9.73;;;3.97;;
3939;SDS011;1984;48.312;9.244;2024-01-15T00:52:24;11.20;;;5.70;;
3939;SDS011;1984;48.312;9.244;2024-01-15T00:54:49;16.90;;;4.83;;
3939;SDS011;1984;48.312;9.244;2024-01-15T00:57:15;9.50;;;3.70;;
3939;SDS011;1984;48.312;9.244;2024-01-15T00:59:40;10.63;;;4.33;;
3939;SDS011;1984;48.312;9.244;2024-01-15T01:02:06;8.87;;;3.63;;
3939;SDS011;1984;48.312;9.244;2024-01-15T01:04:31;9.30;;;4.40;;
3939;SDS011;1984;48.312;9.244;2024-01-15T01:06:57;9.37;;;3.77;;
3939;SDS011;1984;48.312;9.244;2024-01-15T01:09:22;8.43;;;4.17;;
3939;SDS011;1984;48.312;9.244;2024-01-15T01:11:48;9.63;;;4.13;;
3939;SDS011;1984;48.312;9.244;2024-01-15T01:14:13;11.10;;;4.10;;
3939;SDS011;1984;48.312;9.244;2024-01-15T01:16:39;11.53;;;4.13;;
3939;SDS011;1984;48.312;9.244;2024-01-15T01:19:05;11.17;;;4.80;;
3939;SDS011;1984;48.312;9.244;2024-01-15T01:21:31;10.53;;;5.40;;
3939;SDS011;1984;48.312;9.244;2024-01-15T01:23:58;7.80;;;3.50;;
3939;SDS011;1984;48.312;9.244;2024-01-15T01:26:23;7.70;;;3.37;;
3939;SDS011;1984;48.312;9.244;2024-01-15T01:28:49;10.03;;;4.50;;
3939;SDS011;1984;48.312;9.244;2024-01-15T01:31:15;8.60;;;3.97;;
3939;SDS011;1984;48.312;9.244;2024-01-15T01:33:41;4.30;;;3.00;;
3939;SDS011;1984;48.312;9.244;2024-01-15T01:36:08;8.93;;;3.70;;
3939;SDS011;1984;48.312;9.244;2024-01-15T01:38:34;6.33;;;3.50;;
3939;SDS011;1984;48.312;9.244;2024-01-15T01:41:00;8.30;;;3.87;;
3939;SDS011;1984;48.312;9.244;2024-01-15T01:43:26;7.30;;;3.20;;
3939;SDS011;1984;48.312;9.244;2024-01-15T01:45:51;12.00;;;3.70;;
3939;SDS011;1984;48.312;9.244;2024-01-15T01:48:17;11.47;;;4.80;;
3939;SDS011;1984;48.312;9.244;2024-01-15T01:50:44;10.43;;;4.67;;
3939;SDS011;1984;48.312;9.244;2024-01-15T01:53:09;6.50;;;3.30;;
3939;SDS011;1984;48.312;9.244;2024-01-15T01:55:35;9.70;;;4.60;;
3939;SDS011;1984;48.312;9.244;2024-01-15T01:58:03;7.80;;;3.70;;
3939;SDS011;1984;48.312;9.244;2024-01-15T02:00:30;5.87;;;3.20;;
3939;SDS011;1984;48.312;9.244;2024-01-15T02:02:56;9.57;;;3.90;;
3939;SDS011;1984;48.312;9.244;2024-01-15T02:05:22;12.07;;;4.37;;
3939;SDS011;1984;48.312;9.244;2024-01-15T02:07:48;9.20;;;4.67;;
3939;SDS011;1984;48.312;9.244;2024-01-15T02:10:13;16.47;;;4.50;;
3939;SDS011;1984;48.312;9.244;2024-01-15T02:12:39;7.47;;;4.03;;
3939;SDS011;1984;48.312;9.244;2024-01-15T02:15:05;7.63;;;4.13;;
3939;SDS011;1984;48.312;9.244;2024-01-15T02:17:31;10.10;;;4.53;;
3939;SDS011;1984;48.312;9.244;2024-01-15T02:19:56;8.50;;;3.80;;
3939;SDS011;1984;48.312;9.244;2024-01-15T02:22:22;9.67;;;3.40;;
3939;SDS011;1984;48.312;9.244;2024-01-15T02:24:47;7.63;;;3.23;;
3939;SDS011;1984;48.312;9.244;2024-01-15T02:27:13;6.80;;;3.63;;
3939;SDS011;1984;48.312;9.244;2024-01-15T02:29:38;6.80;;;3.37;;
3939;SDS011;1984;48.312;9.244;2024-01-15T02:32:05;9.73;;;4.10;;
3939;SDS011;1984;48.312;9.244;2024-01-15T02:34:32;8.00;;;3.90;;
3939;SDS011;1984;48.312;9.244;2024-01-15T02:36:58;11.10;;;3.73;;
3939;SDS011;1984;48.312;9.244;2024-01-15T02:39:23;6.43;;;2.90;;
3939;SDS011;1984;48.312;9.244;2024-01-15T02:41:49;8.23;;;3.23;;
3939;SDS011;1984;48.312;9.244;2024-01-15T02:44:14;5.27;;;3.00;;
3939;SDS011;1984;48.312;9.244;2024-01-15T02:46:40;7.17;;;3.67;;
3939;SDS011;1984;48.312;9.244;2024-01-15T02:49:05;4.00;;;2.90;;
3939;SDS011;1984;48.312;9.244;2024-01-15T02:51:31;6.40;;;3.23;;
3939;SDS011;1984;48.312;9.244;2024-01-15T02:53:56;7.10;;;3.13;;
3939;SDS011;1984;48.312;9.244;2024-01-15T02:56:22;5.43;;;2.93;;
3939;SDS011;1984;48.312;9.244;2024-01-15T02:58:47;2.70;;;2.20;;
3939;SDS011;1984;48.312;9.244;2024-01-15T03:01:13;2.50;;;2.07;;
3939;SDS011;1984;48.312;9.244;2024-01-15T03:03:39;5.07;;;2.30;;
3939;SDS011;1984;48.312;9.244;2024-01-15T03:06:05;3.83;;;2.37;;
3939;SDS011;1984;48.312;9.244;2024-01-15T03:08:31;8.07;;;3.57;;
3939;SDS011;1984;48.312;9.244;2024-01-15T03:10:56;6.27;;;2.60;;
3939;SDS011;1984;48.312;9.244;2024-01-15T03:13:22;5.00;;;2.23;;
3939;SDS011;1984;48.312;9.244;2024-01-15T03:15:47;3.30;;;2.50;;
3939;SDS011;1984;48.312;9.244;2024-01-15T03:18:13;4.97;;;2.60;;
3939;SDS011;1984;48.312;9.244;2024-01-15T03:20:39;7.37;;;3.00;;
3939;SDS011;1984;48.312;9.244;2024-01-15T03:23:04;4.63;;;2.13;;
3939;SDS011;1984;48.312;9.244;2024-01-15T03:25:30;4.23;;;2.83;;
3939;SDS011;1984;48.312;9.244;2024-01-15T03:27:55;4.30;;;3.00;;
3939;SDS011;1984;48.312;9.244;2024-01-15T03:30:21;5.73;;;3.07;;
3939;SDS011;1984;48.312;9.244;2024-01-15T03:32:46;6.60;;;3.20;;
3939;SDS011;1984;48.312;9.244;2024-01-15T03:35:12;9.07;;;3.33;;
3939;SDS011;1984;48.312;9.244;2024-01-15T03:37:38;5.67;;;3.00;;
3939;SDS011;1984;48.312;9.244;2024-01-15T03:40:03;9.27;;;3.53;;
3939;SDS011;1984;48.312;9.244;2024-01-15T03:42:29;6.97;;;2.70;;
3939;SDS011;1984;48.312;9.244;2024-01-15T03:44:55;9.97;;;3.90;;
3939;SDS011;1984;48.312;9.244;2024-01-15T03:47:20;6.33;;;3.90;;
3939;SDS011;1984;48.312;9.244;2024-01-15T03:49:46;6.83;;;3.50;;
3939;SDS011;1984;48.312;9.244;2024-01-15T03:52:11;8.07;;;3.97;;
3939;SDS011;1984;48.312;9.244;2024-01-15T03:54:37;6.13;;;3.67;;
3939;SDS011;1984;48.312;9.244;2024-01-15T03:57:02;4.77;;;3.33;;
3939;SDS011;1984;48.312;9.244;2024-01-15T03:59:28;7.13;;;3.73;;
3939;SDS011;1984;48.312;9.244;2024-01-15T04:01:54;7.43;;;3.83;;
3939;SDS011;1984;48.312;9.244;2024-01-15T04:04:19;7.70;;;3.50;;
3939;SDS011;1984;48.312;9.244;2024-01-15T04:06:45;8.20;;;3.60;;
3939;SDS011;1984;48.312;9.244;2024-01-15T04:09:11;8.20;;;3.43;;
3939;SDS011;1984;48.312;9.244;2024-01-15T04:11:38;6.63;;;3.33;;
3939;SDS011;1984;48.312;9.244;2024-01-15T04:14:03;11.37;;;4.13;;
3939;SDS011;1984;48.312;9.244;2024-01-15T04:16:29;8.10;;;3.77;;
3939;SDS011;1984;48.312;9.244;2024-01-15T04:18:54;9.13;;;4.10;;
3939;SDS011;1984;48.312;9.244;2024-01-15T04:21:20;9.30;;;4.17;;
3939;SDS011;1984;48.312;9.244;2024-01-15T04:23:45;8.67;;;3.60;;
3939;SDS011;1984;48.312;9.244;2024-01-15T04:26:11;9.30;;;3.90;;
3939;SDS011;1984;48.312;9.244;2024-01-15T04:28:36;11.20;;;4.63;;
3939;SDS011;1984;48.312;9.244;2024-01-15T04:31:02;12.60;;;4.47;;
3939;SDS011;1984;48.312;9.244;2024-01-15T04:33:27;13.77;;;5.50;;
3939;SDS011;1984;48.312;9.244;2024-01-15T04:35:53;11.23;;;4.90;;
3939;SDS011;1984;48.312;9.244;2024-01-15T04:38:18;11.87;;;4.83;;
3939;SDS011;1984;48.312;9.244;2024-01-15T04:40:44;12.00;;;5.93;;
3939;SDS011;1984;48.312;9.244;2024-01-15T04:43:09;10.63;;;4.40;;
3939;SDS011;1984;48.312;9.244;2024-01-15T04:45:35;12.17;;;4.37;;
3939;SDS011;1984;48.312;9.244;2024-01-15T04:48:01;10.63;;;4.83;;
3939;SDS011;1984;48.312;9.244;2024-01-15T04:50:26;11.77;;;5.17;;
3939;SDS011;1984;48.312;9.244;2024-01-15T04:52:52;12.37;;;4.33;;
3939;SDS011;1984;48.312;9.244;2024-01-15T04:55:17;14.70;;;5.03;;
3939;SDS011;1984;48.312;9.244;2024-01-15T04:57:43;12.10;;;4.77;;
3939;SDS011;1984;48.312;9.244;2024-01-15T05:00:09;9.40;;;4.40;;
3939;SDS011;1984;48.312;9.244;2024-01-15T05:02:35;8.30;;;4.27;;
3939;SDS011;1984;48.312;9.244;2024-01-15T05:05:00;10.17;;;5.07;;
3939;SDS011;1984;48.312;9.244;2024-01-15T05:07:26;7.60;;;3.73;;
3939;SDS011;1984;48.312;9.244;2024-01-15T05:09:51;15.57;;;5.17;;
3939;SDS011;1984;48.312;9.244;2024-01-15T05:12:17;14.93;;;5.30;;
3939;SDS011;1984;48.312;9.244;2024-01-15T05:14:42;9.60;;;5.20;;
3939;SDS011;1984;48.312;9.244;2024-01-15T05:17:08;11.50;;;4.27;;
3939;SDS011;1984;48.312;9.244;2024-01-15T05:19:33;11.60;;;5.50;;
3939;SDS011;1984;48.312;9.244;2024-01-15T05:21:59;12.83;;;4.60;;
3939;SDS011;1984;48.312;9.244;2024-01-15T05:24:24;18.77;;;4.33;;
3939;SDS011;1984;48.312;9.244;2024-01-15T05:26:51;6.83;;;3.90;;
3939;SDS011;1984;48.312;9.244;2024-01-15T05:29:17;10.07;;;4.40;;
3939;SDS011;1984;48.312;9.244;2024-01-15T05:31:43;12.73;;;4.60;;
3939;SDS011;1984;48.312;9.244;2024-01-15T05:34:09;12.13;;;5.17;;
3939;SDS011;1984;48.312;9.244;2024-01-15T05:36:34;9.17;;;4.20;;
3939;SDS011;1984;48.312;9.244;2024-01-15T05:38:59;9.73;;;4.40;;
3939;SDS011;1984;48.312;9.244;2024-01-15T05:41:25;8.07;;;4.07;;
3939;SDS011;1984;48.312;9.244;2024-01-15T05:43:51;9.50;;;4.03;;
3939;SDS011;1984;48.312;9.244;2024-01-15T05:46:17;9.83;;;4.30;;
3939;SDS011;1984;48.312;9.244;2024-01-15T05:48:42;5.40;;;3.13;;
3939;SDS011;1984;48.312;9.244;2024-01-15T05:51:08;8.47;;;4.37;;
3939;SDS011;1984;48.312;9.244;2024-01-15T05:53:33;10.90;;;4.37;;
3939;SDS011;1984;48.312;9.244;2024-01-15T05:55:59;8.50;;;3.70;;
3939;SDS011;1984;48.312;9.244;2024-01-15T05:58:26;12.70;;;4.47;;
3939;SDS011;1984;48.312;9.244;2024-01-15T06:00:51;10.33;;;4.40;;
3939;SDS011;1984;48.312;9.244;2024-01-15T06:03:17;11.60;;;4.00;;
3939;SDS011;1984;48.312;9.244;2024-01-15T06:05:42;5.20;;;3.10;;
3939;SDS011;1984;48.312;9.244;2024-01-15T06:08:08;7.63;;;3.77;;
3939;SDS011;1984;48.312;9.244;2024-01-15T06:10:33;7.90;;;3.50;;
3939;SDS011;1984;48.312;9.244;2024-01-15T06:12:59;10.63;;;3.60;;
3939;SDS011;1984;48.312;9.244;2024-01-15T06:15:24;9.23;;;4.00;;
3939;SDS011;1984;48.312;9.244;2024-01-15T06:17:50;6.00;;;3.20;;
3939;SDS011;1984;48.312;9.244;2024-01-15T06:20:15;4.87;;;2.77;;
3939;SDS011;1984;48.312;9.244;2024-01-15T06:22:41;6.43;;;3.40;;
3939;SDS011;1984;48.312;9.244;2024-01-15T06:25:07;3.73;;;2.57;;
3939;SDS011;1984;48.312;9.244;2024-01-15T06:27:33;2.70;;;2.37;;
3939;SDS011;1984;48.312;9.244;2024-01-15T06:29:59;8.53;;;3.27;;
3939;SDS011;1984;48.312;9.244;2024-01-15T06:32:24;3.70;;;2.37;;
3939;SDS011;1984;48.312;9.244;2024-01-15T06:34:50;5.07;;;2.73;;
3939;SDS011;1984;48.312;9.244;2024-01-15T06:37:15;3.67;;;2.40;;
3939;SDS011;1984;48.312;9.244;2024-01-15T06:39:41;3.03;;;1.63;;
3939;SDS011;1984;48.312;9.244;2024-01-15T06:42:06;1.90;;;1.80;;
3939;SDS011;1984;48.312;9.244;2024-01-15T06:44:32;6.03;;;3.00;;
3939;SDS011;1984;48.312;9.244;2024-01-15T06:46:57;3.80;;;1.70;;
3939;SDS011;1984;48.312;9.244;2024-01-15T06:49:27;2.30;;;1.87;;
3939;SDS011;1984;48.312;9.244;2024-01-15T06:51:53;10.07;;;3.60;;
3939;SDS011;1984;48.312;9.244;2024-01-15T06:54:19;2.70;;;1.63;;
3939;SDS011;1984;48.312;9.244;2024-01-15T06:56:45;5.10;;;2.00;;
3939;SDS011;1984;48.312;9.244;2024-01-15T06:59:10;2.20;;;1.70;;
3939;SDS011;1984;48.312;9.244;2024-01-15T07:01:36;7.37;;;2.77;;
3939;SDS011;1984;48.312;9.244;2024-01-15T07:04:02;2.13;;;1.77;;
3939;SDS011;1984;48.312;9.244;2024-01-15T07:06:28;3.90;;;2.70;;
3939;SDS011;1984;48.312;9.244;2024-01-15T07:08:55;3.07;;;2.17;;
3939;SDS011;1984;48.312;9.244;2024-01-15T07:11:21;2.60;;;1.53;;
3939;SDS011;1984;48.312;9.244;2024-01-15T07:13:46;4.10;;;2.00;;
3939;SDS011;1984;48.312;9.244;2024-01-15T07:16:12;2.70;;;1.50;;
3939;SDS011;1984;48.312;9.244;2024-01-15T07:18:37;5.70;;;2.20;;
3939;SDS011;1984;48.312;9.244;2024-01-15T07:21:03;3.23;;;1.97;;
3939;SDS011;1984;48.312;9.244;2024-01-15T07:23:30;1.27;;;1.23;;
3939;SDS011;1984;48.312;9.244;2024-01-15T07:25:56;3.63;;;2.13;;
3939;SDS011;1984;48.312;9.244;2024-01-15T07:28:22;2.33;;;1.63;;
3939;SDS011;1984;48.312;9.244;2024-01-15T07:30:47;2.90;;;2.10;;
3939;SDS011;1984;48.312;9.244;2024-01-15T07:33:13;3.10;;;2.07;;
3939;SDS011;1984;48.312;9.244;2024-01-15T07:35:39;3.20;;;2.10;;
3939;SDS011;1984;48.312;9.244;2024-01-15T07:38:04;2.10;;;1.80;;
3939;SDS011;1984;48.312;9.244;2024-01-15T07:40:30;3.30;;;1.73;;
3939;SDS011;1984;48.312;9.244;2024-01-15T07:42:55;1.97;;;1.80;;
3939;SDS011;1984;48.312;9.244;2024-01-15T07:45:21;2.77;;;1.40;;
3939;SDS011;1984;48.312;9.244;2024-01-15T07:47:46;6.13;;;2.40;;
3939;SDS011;1984;48.312;9.244;2024-01-15T07:50:12;2.87;;;1.63;;
3939;SDS011;1984;48.312;9.244;2024-01-15T07:52:39;2.30;;;1.77;;
3939;SDS011;1984;48.312;9.244;2024-01-15T07:55:05;1.90;;;1.80;;
3939;SDS011;1984;48.312;9.244;2024-01-15T07:57:31;2.40;;;1.80;;
3939;SDS011;1984;48.312;9.244;2024-01-15T07:59:56;4.60;;;1.57;;
3939;SDS011;1984;48.312;9.244;2024-01-15T08:02:22;2.53;;;1.97;;
3939;SDS011;1984;48.312;9.244;2024-01-15T08:04:47;3.00;;;1.37;;
3939;SDS011;1984;48.312;9.244;2024-01-15T08:07:13;2.10;;;1.57;;
3939;SDS011;1984;48.312;9.244;2024-01-15T08:09:39;1.57;;;1.37;;
3939;SDS011;1984;48.312;9.244;2024-01-15T08:12:04;4.93;;;1.30;;
3939;SDS011;1984;48.312;9.244;2024-01-15T08:14:31;1.00;;;0.90;;
3939;SDS011;1984;48.312;9.244;2024-01-15T08:16:56;1.20;;;1.10;;
3939;SDS011;1984;48.312;9.244;2024-01-15T08:19:22;1.30;;;0.90;;
3939;SDS011;1984;48.312;9.244;2024-01-15T08:21:47;3.03;;;1.13;;
3939;SDS011;1984;48.312;9.244;2024-01-15T08:24:14;0.80;;;0.80;;
3939;SDS011;1984;48.312;9.244;2024-01-15T08:26:40;1.50;;;1.40;;
3939;SDS011;1984;48.312;9.244;2024-01-15T08:29:05;3.27;;;1.07;;
3939;SDS011;1984;48.312;9.244;2024-01-15T08:31:31;1.63;;;1.10;;
3939;SDS011;1984;48.312;9.244;2024-01-15T08:33:56;1.50;;;1.40;;
3939;SDS011;1984;48.312;9.244;2024-01-15T08:36:22;0.90;;;0.90;;
3939;SDS011;1984;48.312;9.244;2024-01-15T08:38:49;1.40;;;1.30;;
3939;SDS011;1984;48.312;9.244;2024-01-15T08:41:14;2.13;;;0.90;;
3939;SDS011;1984;48.312;9.244;2024-01-15T08:43:40;1.13;;;0.90;;
3939;SDS011;1984;48.312;9.244;2024-01-15T08:46:06;2.43;;;1.33;;
3939;SDS011;1984;48.312;9.244;2024-01-15T08:48:32;0.90;;;0.90;;
3939;SDS011;1984;48.312;9.244;2024-01-15T08:50:57;2.23;;;1.40;;
3939;SDS011;1984;48.312;9.244;2024-01-15T08:53:23;1.50;;;1.00;;
3939;SDS011;1984;48.312;9.244;2024-01-15T08:55:48;1.73;;;1.17;;
3939;SDS011;1984;48.312;9.244;2024-01-15T08:58:14;1.80;;;0.93;;
3939;SDS011;1984;48.312;9.244;2024-01-15T09:00:40;1.40;;;1.27;;
3939;SDS011;1984;48.312;9.244;2024-01-15T09:03:06;1.47;;;1.10;;
3939;SDS011;1984;48.312;9.244;2024-01-15T09:05:33;1.20;;;0.90;;
3939;SDS011;1984;48.312;9.244;2024-01-15T09:07:58;0.80;;;0.80;;
3939;SDS011;1984;48.312;9.244;2024-01-15T09:10:24;0.70;;;0.70;;
3939;SDS011;1984;48.312;9.244;2024-01-15T09:12:49;1.17;;;0.83;;
3939;SDS011;1984;48.312;9.244;2024-01-15T09:15:16;0.60;;;0.60;;
3939;SDS011;1984;48.312;9.244;2024-01-15T09:17:41;1.00;;;1.00;;
3939;SDS011;1984;48.312;9.244;2024-01-15T09:20:07;2.43;;;1.00;;
3939;SDS011;1984;48.312;9.244;2024-01-15T09:22:33;0.90;;;0.90;;
3939;SDS011;1984;48.312;9.244;2024-01-15T09:24:59;1.10;;;0.87;;
3939;SDS011;1984;48.312;9.244;2024-01-15T09:27:25;1.23;;;1.13;;
3939;SDS011;1984;48.312;9.244;2024-01-15T09:29:54;2.17;;;1.30;;
3939;SDS011;1984;48.312;9.244;2024-01-15T09:32:19;1.43;;;1.30;;
3939;SDS011;1984;48.312;9.244;2024-01-15T09:34:48;0.90;;;0.90;;
3939;SDS011;1984;48.312;9.244;2024-01-15T09:37:13;1.03;;;1.00;;
3939;SDS011;1984;48.312;9.244;2024-01-15T09:39:39;1.00;;;0.90;;
3939;SDS011;1984;48.312;9.244;2024-01-15T09:42:05;3.00;;;1.90;;
3939;SDS011;1984;48.312;9.244;2024-01-15T09:44:30;3.13;;;1.60;;
3939;SDS011;1984;48.312;9.244;2024-01-15T09:46:57;0.93;;;0.93;;
3939;SDS011;1984;48.312;9.244;2024-01-15T09:49:22;0.90;;;0.90;;
3939;SDS011;1984;48.312;9.244;2024-01-15T09:51:48;2.90;;;1.63;;
3939;SDS011;1984;48.312;9.244;2024-01-15T09:54:14;1.47;;;1.37;;
3939;SDS011;1984;48.312;9.244;2024-01-15T09:56:42;1.13;;;1.03;;
3939;SDS011;1984;48.312;9.244;2024-01-15T09:59:17;0.77;;;0.77;;
3939;SDS011;1984;48.312;9.244;2024-01-15T10:01:44;1.87;;;0.80;;
3939;SDS011;1984;48.312;9.244;2024-01-15T10:04:10;3.23;;;1.17;;
3939;SDS011;1984;48.312;9.244;2024-01-15T10:06:37;0.87;;;0.87;;
3939;SDS011;1984;48.312;9.244;2024-01-15T10:09:04;2.30;;;1.33;;
3939;SDS011;1984;48.312;9.244;2024-01-15T10:11:30;2.50;;;1.60;;
3939;SDS011;1984;48.312;9.244;2024-01-15T10:13:57;2.40;;;1.63;;
3939;SDS011;1984;48.312;9.244;2024-01-15T10:16:22;1.20;;;1.10;;
3939;SDS011;1984;48.312;9.244;2024-01-15T10:18:49;1.07;;;0.90;;
3939;SDS011;1984;48.312;9.244;2024-01-15T10:21:14;1.53;;;1.30;;
3939;SDS011;1984;48.312;9.244;2024-01-15T10:23:40;1.93;;;1.20;;
3939;SDS011;1984;48.312;9.244;2024-01-15T10:26:06;1.10;;;1.00;;
3939;SDS011;1984;48.312;9.244;2024-01-15T10:28:32;0.83;;;0.83;;
3939;SDS011;1984;48.312;9.244;2024-01-15T10:30:58;1.73;;;1.13;;
3939;SDS011;1984;48.312;9.244;2024-01-15T10:33:25;1.20;;;1.10;;
3939;SDS011;1984;48.312;9.244;2024-01-15T10:35:58;1.90;;;1.20;;
3939;SDS011;1984;48.312;9.244;2024-01-15T10:38:25;0.73;;;0.73;;
3939;SDS011;1984;48.312;9.244;2024-01-15T10:40:54;0.97;;;0.97;;
3939;SDS011;1984;48.312;9.244;2024-01-15T10:43:21;0.93;;;0.93;;
3939;SDS011;1984;48.312;9.244;2024-01-15T10:45:48;0.90;;;0.90;;
3939;SDS011;1984;48.312;9.244;2024-01-15T10:48:16;0.90;;;0.90;;
3939;SDS011;1984;48.312;9.244;2024-01-15T10:50:45;2.67;;;1.10;;
3939;SDS011;1984;48.312;9.244;2024-01-15T10:53:12;3.80;;;1.10;;
3939;SDS011;1984;48.312;9.244;2024-01-15T10:55:39;2.40;;;1.67;;
3939;SDS011;1984;48.312;9.244;2024-01-15T10:58:09;1.67;;;0.80;;
3939;SDS011;1984;48.312;9.244;2024-01-15T11:00:35;2.20;;;1.30;;
3939;SDS011;1984;48.312;9.244;2024-01-15T11:03:03;0.80;;;0.80;;
3939;SDS011;1984;48.312;9.244;2024-01-15T11:05:33;0.97;;;0.97;;
3939;SDS011;1984;48.312;9.244;2024-01-15T11:08:08;1.00;;;1.00;;
3939;SDS011;1984;48.312;9.244;2024-01-15T11:10:38;0.70;;;0.70;;
3939;SDS011;1984;48.312;9.244;2024-01-15T11:15:59;1.63;;;1.53;;
3939;SDS011;1984;48.312;9.244;2024-01-15T11:18:27;0.70;;;0.70;;
3939;SDS011;1984;48.312;9.244;2024-01-15T11:23:47;0.63;;;0.63;;
3939;SDS011;1984;48.312;9.244;2024-01-15T11:34:20;3.13;;;1.20;;
3939;SDS011;1984;48.312;9.244;2024-01-15T11:41:56;2.50;;;1.40;;
3939;SDS011;1984;48.312;9.244;2024-01-15T11:44:23;1.40;;;0.97;;
3939;SDS011;1984;48.312;9.244;2024-01-15T11:46:54;1.60;;;1.10;;
3939;SDS011;1984;48.312;9.244;2024-01-15T11:50:05;0.83;;;0.83;;
3939;SDS011;1984;48.312;9.244;2024-01-15T11:52:17;1.53;;;1.00;;
3939;SDS011;1984;48.312;9.244;2024-01-15T11:54:47;1.00;;;1.00;;
3939;SDS011;1984;48.312;9.244;2024-01-15T11:57:37;0.70;;;0.60;;
3939;SDS011;1984;48.312;9.244;2024-01-15T12:00:10;0.83;;;0.83;;
3939;SDS011;1984;48.312;9.244;2024-01-15T12:02:37;0.80;;;0.80;;
3939;SDS011;1984;48.312;9.244;2024-01-15T12:05:07;1.20;;;1.07;;
3939;SDS011;1984;48.312;9.244;2024-01-15T12:07:34;1.83;;;1.30;;
3939;SDS011;1984;48.312;9.244;2024-01-15T12:10:00;0.87;;;0.87;;
3939;SDS011;1984;48.312;9.244;2024-01-15T12:12:35;1.20;;;1.00;;
3939;SDS011;1984;48.312;9.244;2024-01-15T12:15:12;2.20;;;1.20;;
3939;SDS011;1984;48.312;9.244;2024-01-15T12:17:38;3.00;;;1.20;;
3939;SDS011;1984;48.312;9.244;2024-01-15T12:20:04;5.40;;;1.47;;
3939;SDS011;1984;48.312;9.244;2024-01-15T12:22:31;1.10;;;1.00;;
3939;SDS011;1984;48.312;9.244;2024-01-15T12:24:56;3.30;;;1.80;;
3939;SDS011;1984;48.312;9.244;2024-01-15T12:27:22;1.53;;;1.43;;
3939;SDS011;1984;48.312;9.244;2024-01-15T12:29:48;1.97;;;1.87;;
3939;SDS011;1984;48.312;9.244;2024-01-15T12:32:13;2.20;;;1.50;;
3939;SDS011;1984;48.312;9.244;2024-01-15T12:34:39;1.60;;;1.50;;
3939;SDS011;1984;48.312;9.244;2024-01-15T12:37:04;1.53;;;1.43;;
3939;SDS011;1984;48.312;9.244;2024-01-15T12:39:33;1.50;;;1.40;;
3939;SDS011;1984;48.312;9.244;2024-01-15T12:42:01;1.40;;;1.30;;
3939;SDS011;1984;48.312;9.244;2024-01-15T12:44:27;3.70;;;1.13;;
3939;SDS011;1984;48.312;9.244;2024-01-15T12:46:53;2.27;;;1.87;;
3939;SDS011;1984;48.312;9.244;2024-01-15T12:49:19;7.03;;;3.30;;
3939;SDS011;1984;48.312;9.244;2024-01-15T12:51:51;1.57;;;1.47;;
3939;SDS011;1984;48.312;9.244;2024-01-15T12:54:18;4.90;;;2.87;;
3939;SDS011;1984;48.312;9.244;2024-01-15T12:56:44;3.33;;;2.13;;
3939;SDS011;1984;48.312;9.244;2024-01-15T12:59:09;4.97;;;3.43;;
3939;SDS011;1984;48.312;9.244;2024-01-15T13:01:35;3.47;;;1.50;;
3939;SDS011;1984;48.312;9.244;2024-01-15T13:04:01;7.90;;;2.03;;
3939;SDS011;1984;48.312;9.244;2024-01-15T13:06:26;1.50;;;1.30;;
3939;SDS011;1984;48.312;9.244;2024-01-15T13:08:52;1.63;;;1.20;;
3939;SDS011;1984;48.312;9.244;2024-01-15T13:11:17;1.93;;;1.10;;
3939;SDS011;1984;48.312;9.244;2024-01-15T13:13:43;1.40;;;1.20;;
3939;SDS011;1984;48.312;9.244;2024-01-15T13:16:08;2.70;;;1.90;;
3939;SDS011;1984;48.312;9.244;2024-01-15T13:18:34;1.27;;;1.17;;
3939;SDS011;1984;48.312;9.244;2024-01-15T13:20:59;1.13;;;0.97;;
3939;SDS011;1984;48.312;9.244;2024-01-15T13:23:25;2.57;;;1.80;;
3939;SDS011;1984;48.312;9.244;2024-01-15T13:25:50;1.60;;;1.50;;
3939;SDS011;1984;48.312;9.244;2024-01-15T13:28:16;1.70;;;1.60;;
3939;SDS011;1984;48.312;9.244;2024-01-15T13:30:42;2.63;;;1.60;;
3939;SDS011;1984;48.312;9.244;2024-01-15T13:33:08;1.47;;;1.37;;
3939;SDS011;1984;48.312;9.244;2024-01-15T13:35:34;2.33;;;1.63;;
3939;SDS011;1984;48.312;9.244;2024-01-15T13:38:01;1.50;;;1.40;;
3939;SDS011;1984;48.312;9.244;2024-01-15T13:40:26;3.00;;;1.53;;
3939;SDS011;1984;48.312;9.244;2024-01-15T13:42:52;2.83;;;1.63;;
3939;SDS011;1984;48.312;9.244;2024-01-15T13:45:19;1.00;;;1.00;;
3939;SDS011;1984;48.312;9.244;2024-01-15T13:47:45;1.67;;;1.50;;
3939;SDS011;1984;48.312;9.244;2024-01-15T13:50:11;1.80;;;1.60;;
3939;SDS011;1984;48.312;9.244;2024-01-15T13:52:37;3.97;;;2.07;;
3939;SDS011;1984;48.312;9.244;2024-01-15T13:55:02;1.37;;;1.27;;
3939;SDS011;1984;48.312;9.244;2024-01-15T13:57:28;2.63;;;1.50;;
3939;SDS011;1984;48.312;9.244;2024-01-15T13:59:54;1.17;;;1.17;;
3939;SDS011;1984;48.312;9.244;2024-01-15T14:02:20;3.10;;;2.00;;
3939;SDS011;1984;48.312;9.244;2024-01-15T14:04:45;2.20;;;2.00;;
3939;SDS011;1984;48.312;9.244;2024-01-15T14:07:11;2.00;;;1.90;;
3939;SDS011;1984;48.312;9.244;2024-01-15T14:09:36;1.80;;;1.50;;
3939;SDS011;1984;48.312;9.244;2024-01-15T14:12:02;1.53;;;1.37;;
3939;SDS011;1984;48.312;9.244;2024-01-15T14:14:28;3.17;;;2.20;;
3939;SDS011;1984;48.312;9.244;2024-01-15T14:16:54;5.03;;;1.60;;
3939;SDS011;1984;48.312;9.244;2024-01-15T14:19:19;1.93;;;1.43;;
3939;SDS011;1984;48.312;9.244;2024-01-15T14:21:45;2.80;;;1.30;;
3939;SDS011;1984;48.312;9.244;2024-01-15T14:24:11;1.30;;;1.20;;
3939;SDS011;1984;48.312;9.244;2024-01-15T14:26:36;2.00;;;1.63;;
3939;SDS011;1984;48.312;9.244;2024-01-15T14:29:02;2.30;;;2.10;;
3939;SDS011;1984;48.312;9.244;2024-01-15T14:31:27;3.37;;;1.80;;
3939;SDS011;1984;48.312;9.244;2024-01-15T14:33:53;1.47;;;1.30;;
3939;SDS011;1984;48.312;9.244;2024-01-15T14:36:20;2.07;;;1.90;;
3939;SDS011;1984;48.312;9.244;2024-01-15T14:38:45;5.13;;;2.00;;
3939;SDS011;1984;48.312;9.244;2024-01-15T14:41:11;4.07;;;2.77;;
3939;SDS011;1984;48.312;9.244;2024-01-15T14:43:36;2.90;;;2.07;;
3939;SDS011;1984;48.312;9.244;2024-01-15T14:46:02;2.13;;;1.90;;
3939;SDS011;1984;48.312;9.244;2024-01-15T14:48:28;2.20;;;1.43;;
3939;SDS011;1984;48.312;9.244;2024-01-15T14:50:54;4.70;;;2.40;;
3939;SDS011;1984;48.312;9.244;2024-01-15T14:53:20;3.73;;;2.17;;
3939;SDS011;1984;48.312;9.244;2024-01-15T14:55:46;3.43;;;2.00;;
3939;SDS011;1984;48.312;9.244;2024-01-15T14:58:11;1.00;;;1.00;;
3939;SDS011;1984;48.312;9.244;2024-01-15T15:00:37;2.73;;;1.70;;
3939;SDS011;1984;48.312;9.244;2024-01-15T15:03:02;5.43;;;2.03;;
3939;SDS011;1984;48.312;9.244;2024-01-15T15:05:28;1.53;;;1.43;;
3939;SDS011;1984;48.312;9.244;2024-01-15T15:07:54;1.27;;;1.20;;
3939;SDS011;1984;48.312;9.244;2024-01-15T15:10:19;5.23;;;2.80;;
3939;SDS011;1984;48.312;9.244;2024-01-15T15:12:45;19.87;;;7.37;;
3939;SDS011;1984;48.312;9.244;2024-01-15T15:15:10;13.90;;;5.87;;
3939;SDS011;1984;48.312;9.244;2024-01-15T15:17:36;5.07;;;2.77;;
3939;SDS011;1984;48.312;9.244;2024-01-15T15:20:02;3.00;;;2.23;;
3939;SDS011;1984;48.312;9.244;2024-01-15T15:22:30;1.77;;;1.63;;
3939;SDS011;1984;48.312;9.244;2024-01-15T15:24:55;2.33;;;1.70;;